Time;durP1;ratioP1;P1;durP2;ratioP2;P2;SDS_P1;SDS_P2;PMS_P1;PMS_P2;Temp;Humidity;BMP_temperature;BMP_pressure;BME280_temperature;BME280_humidity;BME280_pressure;Samples;Min_cycle;Max_cycle;Signal;HPM_P1;HPM_P2
2021/04/26 00:00:30;;;;;;;0.20;0.20;;;;;;;2.25;58.08;97704.13;5133522;27;20374;-66
2021/04/26 00:02:58;;;;;;;0.20;0.20;;;;;;;2.24;58.04;97697.88;5132056;27;20031;-65
2021/04/26 00:05:25;;;;;;;0.20;0.20;;;;;;;2.24;58.14;97686.22;5132626;27;20089;-66
2021/04/26 00:07:51;;;;;;;0.20;0.20;;;;;;;2.20;58.29;97693.91;5133163;27;20035;-65
2021/04/26 00:10:17;;;;;;;0.20;0.20;;;;;;;2.10;58.41;97683.47;5133317;27;20507;-65
2021/04/26 00:12:44;;;;;;;0.20;0.20;;;;;;;1.98;58.78;97687.03;5129267;27;20122;-65
2021/04/26 00:15:15;;;;;;;0.20;0.20;;;;;;;1.88;58.99;97687.44;5112966;28;20035;-64
2021/04/26 00:17:41;;;;;;;0.20;0.20;;;;;;;1.78;59.26;97690.53;5111693;28;20058;-66
2021/04/26 00:20:11;;;;;;;0.20;0.20;;;;;;;1.69;59.39;97684.53;5117245;28;20027;-65
2021/04/26 00:22:37;;;;;;;0.20;0.20;;;;;;;1.62;59.68;97689.09;5092545;28;20054;-66
2021/04/26 00:25:06;;;;;;;0.50;0.50;;;;;;;1.59;59.72;97689.50;5092793;28;20031;-66
2021/04/26 00:27:35;;;;;;;0.20;0.20;;;;;;;1.56;59.66;97684.47;5092436;28;20039;-66
2021/04/26 00:30:04;;;;;;;0.20;0.20;;;;;;;1.52;59.85;97689.47;5092399;28;20070;-65
2021/04/26 00:32:30;;;;;;;0.20;0.20;;;;;;;1.49;59.74;97695.28;5092870;28;20528;-65
2021/04/26 00:34:56;;;;;;;0.20;0.20;;;;;;;1.48;59.75;97692.78;5092591;28;20024;-65
2021/04/26 00:37:22;;;;;;;0.20;0.20;;;;;;;1.48;59.73;97698.19;5092238;28;20080;-66
2021/04/26 00:39:47;;;;;;;0.20;0.20;;;;;;;1.44;59.75;97689.66;5092340;28;20058;-66
2021/04/26 00:42:13;;;;;;;0.20;0.20;;;;;;;1.44;59.67;97699.63;5092523;28;20489;-66
2021/04/26 00:44:39;;;;;;;0.20;0.20;;;;;;;1.44;59.44;97699.63;5093288;28;20028;-67
2021/04/26 00:47:05;;;;;;;0.20;0.20;;;;;;;1.44;59.74;97703.16;5096740;28;20450;-66
2021/04/26 00:49:30;;;;;;;0.20;0.20;;;;;;;1.46;59.57;97702.97;5096161;28;20048;-66
2021/04/26 00:51:56;;;;;;;0.20;0.20;;;;;;;1.48;59.55;97703.59;5096351;28;20027;-67
2021/04/26 00:54:22;;;;;;;0.20;0.20;;;;;;;1.51;59.36;97700.50;5096323;28;20119;-66
2021/04/26 00:56:48;;;;;;;0.20;0.20;;;;;;;1.56;59.31;97700.69;5096307;28;20480;-64
2021/04/26 00:59:14;;;;;;;0.20;0.20;;;;;;;1.60;59.26;97693.84;5094642;28;20034;-65
2021/04/26 01:01:40;;;;;;;0.20;0.20;;;;;;;1.65;59.00;97702.19;5095870;28;20028;-66
2021/04/26 01:04:06;;;;;;;0.20;0.20;;;;;;;1.69;59.09;97697.19;5096479;28;20097;-67
2021/04/26 01:06:32;;;;;;;0.20;0.20;;;;;;;1.73;58.83;97704.69;5099949;28;20162;-67
2021/04/26 01:08:57;;;;;;;0.20;0.20;;;;;;;1.80;58.91;97706.59;5102327;28;20191;-65
2021/04/26 01:11:47;;;;;;;0.20;0.20;;;;;;;1.88;58.80;97698.28;5096155;28;20059;-65
2021/04/26 01:14:13;;;;;;;0.20;0.20;;;;;;;1.98;58.25;97695.16;5094866;28;20040;-65
2021/04/26 01:16:53;;;;;;;0.20;0.20;;;;;;;2.18;58.06;97695.16;5095793;28;20028;-66
2021/04/26 01:19:56;;;;;;;0.20;0.20;;;;;;;3.37;55.69;97690.47;5096298;28;20039;-66
2021/04/26 01:22:43;;;;;;;0.20;0.20;;;;;;;5.70;50.74;97692.09;5095936;28;20539;-65
2021/04/26 01:25:16;;;;;;;0.20;0.20;;;;;;;7.82;46.83;97697.78;5107119;27;20125;-66
2021/04/26 01:27:41;;;;;;;0.47;0.47;;;;;;;9.38;44.50;97694.47;5136665;27;20027;-67
2021/04/26 01:30:13;;;;;;;0.20;0.20;;;;;;;10.43;43.26;97682.44;5136557;27;20486;-67
2021/04/26 01:33:00;;;;;;;0.20;0.20;;;;;;;11.36;42.65;97683.88;5136954;27;20587;-67
2021/04/26 01:35:27;;;;;;;0.20;0.20;;;;;;;12.08;42.01;97678.63;5136673;27;20111;-65
2021/04/26 01:37:58;;;;;;;0.20;0.20;;;;;;;12.68;41.96;97683.63;5136075;27;20047;-70
2021/04/26 01:40:26;;;;;;;0.20;0.20;;;;;;;13.15;41.68;97688.78;5136318;27;20035;-67
2021/04/26 01:42:56;;;;;;;0.20;0.20;;;;;;;13.64;41.43;97691.97;5136250;27;20023;-67
2021/04/26 01:45:24;;;;;;;0.10;0.10;;;;;;;13.88;41.73;97686.59;5117802;27;20027;-66
2021/04/26 01:47:56;;;;;;;0.20;0.20;;;;;;;14.27;41.77;97680.31;5112211;27;20032;-65
2021/04/26 01:50:23;;;;;;;0.10;0.10;;;;;;;14.46;41.58;97685.97;5111644;28;20061;-65
2021/04/26 01:52:51;;;;;;;0.10;0.10;;;;;;;14.85;41.53;97687.06;5113768;27;20027;-67
2021/04/26 01:55:20;;;;;;;0.10;0.10;;;;;;;15.32;41.23;97688.25;5109148;27;20020;-64
2021/04/26 01:57:47;;;;;;;0.10;0.10;;;;;;;15.64;40.95;97685.97;5106473;28;20363;-66
2021/04/26 02:00:21;;;;;;;0.10;0.10;;;;;;;16.02;40.86;97686.03;5126777;27;20032;-70
2021/04/26 02:02:49;;;;;;;0.20;0.20;;;;;;;16.29;40.69;97688.13;5114870;27;20061;-65
2021/04/26 02:05:15;;;;;;;0.20;0.20;;;;;;;16.22;41.13;97690.44;5104797;28;20035;-66
2021/04/26 02:07:47;;;;;;;0.10;0.10;;;;;;;16.36;41.34;97673.94;5109668;27;20110;-67
2021/04/26 02:10:15;;;;;;;0.20;0.20;;;;;;;16.88;40.85;97687.78;5104457;28;20028;-66
2021/04/26 02:12:43;;;;;;;0.10;0.10;;;;;;;17.40;40.05;97690.44;5103044;28;20024;-65
2021/04/26 02:15:15;;;;;;;0.20;0.20;;;;;;;17.66;39.90;97687.97;5107435;27;20031;-66
2021/04/26 02:17:42;;;;;;;0.20;0.20;;;;;;;17.66;40.24;97694.34;5107857;27;20107;-65
2021/04/26 02:20:12;;;;;;;0.10;0.10;;;;;;;17.85;40.19;97691.47;5103677;28;20023;-64
2021/04/26 02:22:38;;;;;;;0.10;0.10;;;;;;;17.91;40.18;97689.44;5109517;28;20625;-65
2021/04/26 02:25:07;;;;;;;0.17;0.17;;;;;;;18.06;40.28;97693.00;5102875;28;20032;-66
2021/04/26 02:27:32;;;;;;;0.20;0.20;;;;;;;18.16;39.95;97693.59;5103243;27;20031;-66
2021/04/26 02:29:58;;;;;;;0.10;0.10;;;;;;;18.25;40.03;97698.44;5103683;28;20050;-65
2021/04/26 02:32:30;;;;;;;0.17;0.17;;;;;;;18.59;39.78;97691.53;5096588;28;20085;-65
2021/04/26 02:34:59;;;;;;;0.10;0.10;;;;;;;19.04;39.32;97675.66;5102896;27;20035;-65
2021/04/26 02:37:43;;;;;;;0.10;0.10;;;;;;;19.47;38.88;97687.34;5135163;27;20076;-65
2021/04/26 02:40:12;;;;;;;0.20;0.20;;;;;;;19.65;38.66;97688.22;5126291;27;20039;-66
2021/04/26 02:42:41;;;;;;;0.10;0.10;;;;;;;19.65;39.02;97688.22;5134992;27;20027;-66
2021/04/26 02:45:10;;;;;;;0.20;0.20;;;;;;;19.57;39.30;97676.72;5126434;27;20532;-65
2021/04/26 02:47:39;;;;;;;0.10;0.10;;;;;;;19.55;39.57;97679.03;5133829;27;20115;-66
2021/04/26 02:50:06;;;;;;;0.35;0.35;;;;;;;19.77;39.28;97674.50;5114060;28;20031;-66
2021/04/26 02:52:32;;;;;;;0.10;0.10;;;;;;;20.17;39.10;97668.91;5132337;27;20034;-65
2021/04/26 02:55:01;;;;;;;0.10;0.10;;;;;;;20.22;38.80;97653.97;5121601;27;20028;-64
2021/04/26 02:57:27;;;;;;;0.10;0.10;;;;;;;19.77;39.59;97672.56;5114095;28;20059;-66
2021/04/26 02:59:55;;;;;;;0.10;0.10;;;;;;;19.77;39.96;97668.94;5113882;28;20055;-64
2021/04/26 03:02:21;;;;;;;0.10;0.10;;;;;;;20.41;38.94;97675.97;5122343;27;20387;-65
2021/04/26 03:04:48;;;;;;;0.32;0.32;;;;;;;20.86;38.44;97670.03;5134255;27;20485;-66
2021/04/26 03:07:15;;;;;;;0.17;0.17;;;;;;;21.00;38.22;97667.88;5134769;27;20031;-65
2021/04/26 03:09:42;;;;;;;0.10;0.10;;;;;;;21.44;37.92;97662.16;5126160;27;20130;-64
2021/04/26 03:12:09;;;;;;;0.10;0.10;;;;;;;21.06;38.40;97665.75;5114077;28;20043;-66
2021/04/26 03:14:35;;;;;;;0.10;0.10;;;;;;;19.90;40.45;97668.00;5113558;28;20058;-66
2021/04/26 03:17:02;;;;;;;0.13;0.13;;;;;;;18.73;42.39;97678.38;5113095;28;20023;-65
2021/04/26 03:19:28;;;;;;;0.10;0.10;;;;;;;16.99;45.02;97680.94;5113448;28;20027;-66
2021/04/26 03:21:55;;;;;;;0.13;0.13;;;;;;;15.66;47.24;97670.69;5114076;28;20130;-66
2021/04/26 03:24:21;;;;;;;0.10;0.10;;;;;;;14.84;48.35;97693.69;5128760;27;20035;-65
2021/04/26 03:26:49;;;;;;;0.10;0.10;;;;;;;15.63;46.08;97676.81;5130117;27;20020;-65
2021/04/26 03:29:18;;;;;;;0.30;0.30;;;;;;;14.87;46.65;97665.50;5113415;28;20122;-67
2021/04/26 03:31:45;;;;;;;0.10;0.10;;;;;;;13.88;47.96;97680.28;5111893;27;20024;-65
2021/04/26 03:34:12;;;;;;;0.10;0.10;;;;;;;12.49;50.28;97684.19;5112662;27;21602;-67
2021/04/26 03:36:39;;;;;;;0.10;0.10;;;;;;;11.48;51.38;97691.91;5138345;27;20033;-65
2021/04/26 03:39:09;;;;;;;0.10;0.10;;;;;;;11.19;51.39;97693.13;5136603;27;20027;-66
2021/04/26 03:41:35;;;;;;;0.65;0.65;;;;;;;11.14;50.30;97690.34;5133734;27;20027;-67
2021/04/26 03:44:01;;;;;;;0.20;0.20;;;;;;;10.57;50.98;97694.66;5132091;27;20037;-67
2021/04/26 03:46:27;;;;;;;0.15;0.15;;;;;;;9.90;51.62;97683.03;5134044;27;20035;-66
2021/04/26 03:48:52;;;;;;;0.20;0.20;;;;;;;9.70;51.43;97693.75;5112957;28;20031;-66
2021/04/26 03:51:18;;;;;;;0.10;0.10;;;;;;;9.39;51.43;97690.66;5113118;28;20109;-67
2021/04/26 03:53:44;;;;;;;0.20;0.20;;;;;;;9.08;51.44;97690.25;5124274;27;20027;-68
2021/04/26 03:56:10;;;;;;;0.20;0.20;;;;;;;8.84;51.30;97697.84;5133949;27;20027;-69
2021/04/26 03:58:35;;;;;;;0.20;0.20;;;;;;;8.44;51.57;97685.16;5131855;27;20019;-66
2021/04/26 04:01:01;;;;;;;0.10;0.10;;;;;;;8.24;51.44;97687.31;5113785;28;20028;-68
2021/04/26 04:03:27;;;;;;;0.20;0.20;;;;;;;8.24;50.93;97686.47;5113774;28;20023;-66
2021/04/26 04:05:53;;;;;;;0.20;0.20;;;;;;;10.72;45.98;97676.63;5113883;28;20031;-67
2021/04/26 04:08:21;;;;;;;0.20;0.20;;;;;;;13.11;41.78;97670.34;5112984;28;20036;-67
2021/04/26 04:10:47;;;;;;;0.20;0.20;;;;;;;14.91;38.99;97669.31;5112865;28;20038;-66
2021/04/26 04:13:13;;;;;;;0.20;0.20;;;;;;;15.39;38.97;97679.59;5130107;28;20500;-66
2021/04/26 04:15:39;;;;;;;0.20;0.20;;;;;;;16.48;38.07;97671.50;5133388;27;20038;-66
2021/04/26 04:18:05;;;;;;;0.10;0.10;;;;;;;17.19;37.37;97676.97;5132883;27;20031;-66
2021/04/26 04:20:31;;;;;;;0.10;0.10;;;;;;;16.82;38.41;97668.44;5137025;27;20130;-66
2021/04/26 04:22:56;;;;;;;0.10;0.10;;;;;;;15.73;40.81;97681.41;5126433;27;20019;-68
2021/04/26 04:25:22;;;;;;;0.10;0.10;;;;;;;13.67;44.32;97689.47;5133820;27;20035;-67
2021/04/26 04:27:48;;;;;;;0.10;0.10;;;;;;;12.01;47.32;97705.56;5138207;27;20031;-68
2021/04/26 04:30:14;;;;;;;0.10;0.10;;;;;;;10.85;49.22;97695.38;5137807;27;20481;-66
2021/04/26 04:32:41;;;;;;;0.20;0.20;;;;;;;9.85;50.57;97715.03;5138010;27;20057;-65
2021/04/26 04:35:07;;;;;;;0.10;0.10;;;;;;;10.82;47.82;97706.91;5137378;27;20559;-65
2021/04/26 04:37:33;;;;;;;0.10;0.10;;;;;;;11.61;45.87;97702.38;5137323;27;20085;-66
2021/04/26 04:39:59;;;;;;;0.10;0.10;;;;;;;12.05;44.89;97707.50;5137394;27;20038;-66
2021/04/26 04:42:25;;;;;;;0.10;0.10;;;;;;;11.86;44.96;97704.41;5136207;27;20027;-67
2021/04/26 04:44:51;;;;;;;0.10;0.10;;;;;;;11.06;46.08;97704.59;5137210;27;20345;-68
2021/04/26 04:47:17;;;;;;;0.10;0.10;;;;;;;10.44;46.89;97709.63;5139493;27;20095;-66
2021/04/26 04:49:42;;;;;;;0.10;0.10;;;;;;;10.21;46.96;97694.28;5127836;27;20072;-64
2021/04/26 04:52:08;;;;;;;0.10;0.10;;;;;;;10.15;46.81;97698.09;5124125;28;20059;-65
2021/04/26 04:54:34;;;;;;;0.10;0.10;;;;;;;10.05;46.80;97698.78;5117089;28;20032;-65
2021/04/26 04:57:00;;;;;;;0.10;0.10;;;;;;;9.70;47.06;97702.84;5115227;28;20599;-67
2021/04/26 04:59:26;;;;;;;0.10;0.10;;;;;;;9.42;47.45;97706.56;5116780;28;20061;-66
2021/04/26 05:01:51;;;;;;;0.52;0.40;;;;;;;9.52;47.02;97711.38;5115050;28;20085;-66
2021/04/26 05:04:17;;;;;;;0.10;0.10;;;;;;;9.63;46.43;97699.47;5117115;28;20058;-66
2021/04/26 05:06:43;;;;;;;0.10;0.10;;;;;;;9.67;46.23;97695.09;5116248;28;20028;-66
2021/04/26 05:09:09;;;;;;;0.52;0.52;;;;;;;9.67;45.91;97697.84;5116413;28;20028;-66
2021/04/26 05:11:35;;;;;;;0.10;0.10;;;;;;;9.70;45.83;97705.56;5116116;28;20031;-65
2021/04/26 05:14:01;;;;;;;0.20;0.20;;;;;;;9.72;45.65;97708.88;5116218;28;20032;-66
2021/04/26 05:16:28;;;;;;;0.20;0.20;;;;;;;9.61;45.64;97702.44;5116076;27;20062;-66
2021/04/26 05:18:58;;;;;;;0.10;0.10;;;;;;;9.63;45.72;97705.75;5116041;28;20070;-68
2021/04/26 05:21:24;;;;;;;0.20;0.20;;;;;;;9.53;45.80;97694.66;5116524;28;20542;-65
2021/04/26 05:23:50;;;;;;;0.20;0.20;;;;;;;9.17;46.12;97702.44;5120960;27;20104;-65
2021/04/26 05:26:16;;;;;;;0.20;0.20;;;;;;;9.10;46.34;97705.34;5137001;27;20031;-67
2021/04/26 05:28:42;;;;;;;0.20;0.20;;;;;;;9.15;46.12;97696.38;5135076;27;20027;-67
2021/04/26 05:31:08;;;;;;;0.20;0.20;;;;;;;9.03;46.02;97701.97;5137600;27;20039;-66
2021/04/26 05:33:33;;;;;;;0.10;0.10;;;;;;;9.01;45.83;97704.13;5136439;27;20038;-65
2021/04/26 05:35:59;;;;;;;0.20;0.20;;;;;;;8.98;45.95;97701.91;5136808;27;20027;-68
2021/04/26 05:38:25;;;;;;;0.20;0.20;;;;;;;8.86;46.15;97699.28;5136658;27;20386;-65
2021/04/26 05:40:51;;;;;;;0.20;0.20;;;;;;;8.68;46.36;97692.13;5136424;27;20106;-65
2021/04/26 05:43:17;;;;;;;0.10;0.10;;;;;;;8.52;46.53;97684.78;5134834;27;20502;-66
2021/04/26 05:45:43;;;;;;;0.20;0.20;;;;;;;8.40;46.59;97674.69;5134840;27;20175;-66
2021/04/26 05:48:09;;;;;;;0.20;0.20;;;;;;;8.50;46.31;97678.72;5136161;27;20118;-69
2021/04/26 05:50:36;;;;;;;0.20;0.20;;;;;;;8.53;46.12;97681.78;5136234;27;20026;-67
2021/04/26 05:53:02;;;;;;;0.20;0.20;;;;;;;8.50;46.06;97679.56;5136238;27;20031;-66
2021/04/26 05:55:28;;;;;;;0.20;0.20;;;;;;;8.46;45.91;97688.50;5136031;27;20027;-65
2021/04/26 05:57:54;;;;;;;0.20;0.20;;;;;;;8.65;45.50;97692.63;5136058;27;20043;-66
2021/04/26 06:00:20;;;;;;;0.20;0.20;;;;;;;8.75;45.23;97706.47;5136105;27;20043;-68
2021/04/26 06:02:46;;;;;;;0.20;0.20;;;;;;;8.71;45.16;97701.75;5136386;27;20052;-67
2021/04/26 06:05:12;;;;;;;0.20;0.20;;;;;;;8.53;45.46;97694.66;5137061;27;20031;-65
2021/04/26 06:07:38;;;;;;;0.20;0.20;;;;;;;8.53;45.39;97690.00;5140177;27;20030;-64
2021/04/26 06:10:04;;;;;;;0.20;0.20;;;;;;;8.46;45.42;97691.25;5136027;27;20023;-65
2021/04/26 06:12:30;;;;;;;0.20;0.20;;;;;;;8.29;45.63;97689.31;5135778;27;20038;-66
2021/04/26 06:14:56;;;;;;;0.60;0.60;;;;;;;8.22;45.75;97692.19;5136937;27;20023;-64
2021/04/26 06:17:21;;;;;;;0.13;0.13;;;;;;;8.32;45.57;97688.81;5135541;27;20118;-64
2021/04/26 06:19:47;;;;;;;0.20;0.20;;;;;;;8.51;45.17;97681.22;5126348;27;20064;-66
2021/04/26 06:22:13;;;;;;;0.20;0.20;;;;;;;8.75;44.50;97692.78;5114906;28;20042;-66
2021/04/26 06:24:39;;;;;;;0.20;0.20;;;;;;;9.06;43.98;97693.25;5115332;28;20043;-65
2021/04/26 06:27:05;;;;;;;0.20;0.20;;;;;;;9.36;43.52;97685.69;5114744;28;20019;-64
2021/04/26 06:29:31;;;;;;;0.20;0.20;;;;;;;9.43;43.42;97681.66;5114611;28;20031;-65
2021/04/26 06:31:56;;;;;;;0.20;0.20;;;;;;;9.21;43.59;97672.63;5115223;28;20085;-63
2021/04/26 06:34:22;;;;;;;0.10;0.10;;;;;;;9.09;43.82;97692.72;5114530;28;20499;-64
2021/04/26 06:36:48;;;;;;;0.20;0.20;;;;;;;9.17;43.69;97688.75;5113347;28;20074;-64
2021/04/26 06:39:14;;;;;;;0.20;0.20;;;;;;;9.28;43.71;97674.09;5114533;28;20043;-63
2021/04/26 06:41:39;;;;;;;0.20;0.20;;;;;;;9.49;43.31;97679.81;5114434;28;20035;-64
2021/04/26 06:44:05;;;;;;;0.20;0.20;;;;;;;9.69;43.03;97683.88;5114406;28;20083;-64
2021/04/26 06:46:32;;;;;;;0.20;0.20;;;;;;;9.74;42.96;97665.56;5129238;27;20075;-65
2021/04/26 06:48:59;;;;;;;0.20;0.20;;;;;;;9.64;43.08;97681.91;5135100;27;20027;-64
2021/04/26 06:51:25;;;;;;;0.20;0.20;;;;;;;9.46;43.42;97705.81;5133473;27;20416;-64
2021/04/26 06:53:51;;;;;;;0.20;0.20;;;;;;;9.51;43.33;97696.00;5134812;27;20039;-66
2021/04/26 06:56:16;;;;;;;0.20;0.20;;;;;;;9.55;43.02;97703.44;5135107;27;20043;-64
2021/04/26 06:58:42;;;;;;;0.10;0.10;;;;;;;9.71;42.84;97709.94;5113967;27;20028;-63
2021/04/26 07:01:09;;;;;;;0.10;0.10;;;;;;;9.99;42.28;97691.63;5111108;27;20028;-65
2021/04/26 07:03:35;;;;;;;0.20;0.20;;;;;;;10.10;42.17;97704.34;5115051;27;20036;-64
2021/04/26 07:06:01;;;;;;;0.20;0.20;;;;;;;10.02;42.37;97690.28;5112581;27;20038;-64
2021/04/26 07:08:27;;;;;;;0.20;0.20;;;;;;;9.78;42.69;97672.19;5108205;27;20064;-67
2021/04/26 07:10:52;;;;;;;0.20;0.20;;;;;;;9.53;43.20;97696.59;5111973;27;20031;-66
2021/04/26 07:13:19;;;;;;;0.20;0.20;;;;;;;9.35;43.41;97681.28;5109881;27;20024;-66
2021/04/26 07:15:45;;;;;;;0.20;0.20;;;;;;;9.12;43.65;97681.25;5106144;27;20031;-65
2021/04/26 07:18:11;;;;;;;0.20;0.20;;;;;;;8.88;44.04;97688.06;5109220;27;20030;-66
2021/04/26 07:20:41;;;;;;;0.22;0.22;;;;;;;8.71;44.19;97691.63;5113858;27;20040;-65
2021/04/26 07:23:06;;;;;;;0.10;0.10;;;;;;;8.67;43.99;97712.38;5104201;27;20566;-65
2021/04/26 07:25:32;;;;;;;0.10;0.10;;;;;;;8.69;43.91;97699.28;5113506;27;20056;-66
2021/04/26 07:27:58;;;;;;;0.17;0.17;;;;;;;8.78;43.64;97699.69;5102285;28;20031;-64
2021/04/26 07:30:24;;;;;;;0.10;0.10;;;;;;;8.87;43.46;97706.38;5099283;28;20089;-65
2021/04/26 07:32:50;;;;;;;0.20;0.20;;;;;;;8.98;43.16;97701.91;5100900;28;20020;-66
2021/04/26 07:35:16;;;;;;;0.20;0.20;;;;;;;9.22;42.56;97696.19;5101707;28;20023;-67
2021/04/26 07:37:43;;;;;;;0.10;0.10;;;;;;;9.37;42.30;97682.69;5102122;28;20055;-67
2021/04/26 07:40:11;;;;;;;0.40;0.32;;;;;;;9.56;42.20;97688.69;5102302;27;20035;-68
2021/04/26 07:42:37;;;;;;;0.30;0.25;;;;;;;9.61;41.95;97693.38;5112223;27;20031;-66
2021/04/26 07:45:05;;;;;;;0.10;0.10;;;;;;;9.63;42.17;97691.22;5103199;28;20069;-66
2021/04/26 07:47:31;;;;;;;0.10;0.10;;;;;;;9.61;42.14;97682.41;5099444;28;20149;-65
2021/04/26 07:49:59;;;;;;;0.10;0.10;;;;;;;9.39;42.67;97696.97;5101486;28;20410;-66
2021/04/26 07:52:25;;;;;;;0.10;0.10;;;;;;;9.01;43.25;97709.63;5099797;28;20032;-65
2021/04/26 07:54:51;;;;;;;0.10;0.10;;;;;;;8.59;44.18;97693.63;5100171;28;20030;-65
2021/04/26 07:57:17;;;;;;;0.10;0.10;;;;;;;8.01;44.98;97696.47;5110222;27;20023;-65
2021/04/26 07:59:42;;;;;;;0.20;0.20;;;;;;;7.55;45.74;97701.06;5104545;28;20032;-67
2021/04/26 08:02:08;;;;;;;0.52;0.52;;;;;;;7.48;45.78;97703.09;5100062;28;20482;-66
2021/04/26 08:04:34;;;;;;;0.20;0.20;;;;;;;7.46;45.83;97713.44;5100307;28;20035;-66
2021/04/26 08:07:00;;;;;;;0.15;0.15;;;;;;;7.47;45.54;97707.72;5100575;28;20024;-66
2021/04/26 08:09:26;;;;;;;0.20;0.20;;;;;;;7.52;45.29;97707.00;5098562;28;20489;-65
2021/04/26 08:11:52;;;;;;;0.10;0.10;;;;;;;7.89;44.60;97695.69;5110046;28;20114;-65
2021/04/26 08:14:18;;;;;;;0.20;0.20;;;;;;;8.03;44.18;97679.81;5104154;28;20413;-65
2021/04/26 08:16:44;;;;;;;0.20;0.20;;;;;;;8.05;44.08;97678.50;5100128;28;20794;-65
2021/04/26 08:19:10;;;;;;;0.20;0.20;;;;;;;8.00;44.26;97694.81;5100042;28;20031;-66
2021/04/26 08:21:37;;;;;;;0.20;0.20;;;;;;;7.98;44.33;97679.72;5101054;28;20016;-65
2021/04/26 08:24:05;;;;;;;0.57;0.57;;;;;;;7.98;44.36;97676.97;5101934;28;20024;-65
2021/04/26 08:26:31;;;;;;;0.20;0.20;;;;;;;8.11;44.14;97670.38;5104578;28;20020;-65
2021/04/26 08:28:56;;;;;;;0.20;0.20;;;;;;;8.23;43.86;97665.69;5107913;28;20023;-65
2021/04/26 08:31:22;;;;;;;0.20;0.20;;;;;;;8.41;43.56;97675.56;5101960;28;20111;-65
2021/04/26 08:33:48;;;;;;;0.20;0.20;;;;;;;8.52;43.38;97663.69;5099782;28;20032;-67
2021/04/26 08:36:15;;;;;;;0.20;0.20;;;;;;;8.53;43.31;97670.84;5108344;28;20178;-63
2021/04/26 08:38:41;;;;;;;0.10;0.10;;;;;;;8.41;43.51;97684.56;5100061;28;20080;-65
2021/04/26 08:41:13;;;;;;;0.20;0.20;;;;;;;8.19;43.97;97667.25;5099573;28;20086;-65
2021/04/26 08:43:43;;;;;;;0.10;0.10;;;;;;;7.98;44.24;97680.56;5104583;28;21072;-67
2021/04/26 08:46:09;;;;;;;0.20;0.20;;;;;;;8.06;44.33;97669.22;5110156;27;20040;-68
2021/04/26 08:48:36;;;;;;;0.20;0.20;;;;;;;8.45;43.52;97676.75;5100643;28;20035;-65
2021/04/26 08:51:02;;;;;;;0.20;0.20;;;;;;;8.84;42.70;97674.03;5100526;28;20041;-65
2021/04/26 08:53:28;;;;;;;0.20;0.20;;;;;;;8.93;42.66;97688.94;5100405;28;20119;-66
2021/04/26 08:58:29;;;;;;;0.20;0.20;;;;;;;8.66;43.08;97671.59;4686450;26;20429;-63
2021/04/26 09:00:55;;;;;;;0.20;0.20;;;;;;;8.57;43.21;97682.94;5026229;28;20028;-64
2021/04/26 09:03:33;;;;;;;0.20;0.20;;;;;;;8.69;42.99;97669.16;5026164;28;20036;-69
2021/04/26 09:06:00;;;;;;;0.20;0.20;;;;;;;9.04;42.46;97673.50;5029654;28;20033;-63
2021/04/26 09:08:27;;;;;;;0.20;0.20;;;;;;;9.30;41.99;97665.63;5030770;28;20033;-62
2021/04/26 09:11:00;;;;;;;0.20;0.20;;;;;;;9.39;41.83;97672.31;5035346;28;20037;-63
2021/04/26 09:13:44;;;;;;;0.20;0.20;;;;;;;9.47;41.70;97680.06;5032271;28;20045;-65
2021/04/26 09:16:30;;;;;;;0.20;0.20;;;;;;;9.45;41.79;97687.72;5031378;28;20853;-63
2021/04/26 09:18:58;;;;;;;0.17;0.17;;;;;;;9.31;42.17;97694.66;5044682;28;20038;-63
2021/04/26 09:21:34;;;;;;;0.20;0.20;;;;;;;9.19;42.48;97683.84;5017612;28;20124;-63
2021/04/26 09:24:21;;;;;;;0.20;0.20;;;;;;;9.15;42.61;97679.94;5014795;28;20045;-64
2021/04/26 09:26:51;;;;;;;0.10;0.10;;;;;;;9.07;42.73;97699.56;5025207;28;20406;-64
2021/04/26 09:29:25;;;;;;;0.10;0.10;;;;;;;9.08;42.99;97696.56;5033308;28;20037;-65
2021/04/26 09:32:14;;;;;;;0.20;0.20;;;;;;;9.21;42.51;97700.00;5035372;28;20498;-64
2021/04/26 09:34:44;;;;;;;0.17;0.17;;;;;;;9.31;42.54;97671.94;5035200;28;20135;-64
2021/04/26 09:37:16;;;;;;;0.20;0.20;;;;;;;9.24;42.55;97686.63;5035161;28;20037;-67
2021/04/26 09:40:06;;;;;;;0.20;0.20;;;;;;;9.27;42.63;97705.28;5035365;28;20087;-65
2021/04/26 09:42:35;;;;;;;0.20;0.20;;;;;;;9.32;42.49;97704.56;5032806;28;20043;-63
2021/04/26 09:45:31;;;;;;;0.57;0.57;;;;;;;9.36;42.46;97702.94;5035400;28;20029;-65
2021/04/26 09:48:19;;;;;;;0.20;0.20;;;;;;;9.39;42.24;97696.97;5034877;28;20045;-65
2021/04/26 09:51:04;;;;;;;0.10;0.10;;;;;;;9.26;42.45;97705.53;5035057;28;20045;-63
2021/04/26 09:53:37;;;;;;;0.20;0.20;;;;;;;9.28;42.50;97698.75;5030609;28;20041;-64
2021/04/26 09:56:18;;;;;;;0.10;0.10;;;;;;;9.39;42.24;97696.97;5026551;28;20498;-64
2021/04/26 09:58:47;;;;;;;0.20;0.20;;;;;;;9.30;42.23;97698.47;5022468;28;20053;-64
2021/04/26 10:01:13;;;;;;;0.15;0.15;;;;;;;9.10;42.58;97699.88;5029566;28;20030;-64
2021/04/26 10:03:40;;;;;;;0.20;0.20;;;;;;;8.90;42.92;97716.00;5034255;28;20036;-65
2021/04/26 10:06:05;;;;;;;0.20;0.20;;;;;;;8.75;43.09;97708.41;5031805;28;20136;-65
2021/04/26 10:08:31;;;;;;;0.20;0.20;;;;;;;8.71;43.27;97701.75;5031764;28;20033;-66
2021/04/26 10:10:57;;;;;;;0.20;0.20;;;;;;;8.80;42.90;97692.03;5034672;28;20025;-66
2021/04/26 10:13:25;;;;;;;0.20;0.20;;;;;;;8.88;42.86;97707.22;5025189;28;20045;-67
2021/04/26 10:15:57;;;;;;;0.10;0.10;;;;;;;8.93;42.65;97699.91;5034787;28;20401;-64
2021/04/26 10:18:33;;;;;;;0.20;0.20;;;;;;;9.05;42.32;97718.13;5034029;28;20021;-67
2021/04/26 10:20:59;;;;;;;0.20;0.20;;;;;;;9.24;42.09;97722.22;5033219;28;20048;-65
2021/04/26 10:23:40;;;;;;;0.20;0.20;;;;;;;9.38;41.90;97703.53;5034203;28;20029;-64
2021/04/26 10:26:06;;;;;;;0.20;0.20;;;;;;;9.39;41.81;97705.19;5032335;28;20052;-63
2021/04/26 10:28:37;;;;;;;0.20;0.20;;;;;;;9.45;41.78;97690.47;5029624;28;20124;-64
2021/04/26 10:31:15;;;;;;;0.20;0.20;;;;;;;9.45;41.92;97706.91;5034238;28;20025;-64
2021/04/26 10:33:56;;;;;;;0.10;0.10;;;;;;;9.43;42.08;97716.47;5034230;28;20589;-64
2021/04/26 10:36:41;;;;;;;0.20;0.20;;;;;;;9.45;42.07;97708.81;5034285;28;20389;-63
2021/04/26 10:39:08;;;;;;;0.10;0.10;;;;;;;9.41;42.14;97705.75;5033342;28;20034;-64
2021/04/26 10:41:59;;;;;;;0.70;0.65;;;;;;;9.40;42.15;97714.22;5034370;28;20027;-65
2021/04/26 10:44:40;;;;;;;0.10;0.10;;;;;;;9.45;42.19;97715.13;5023859;28;20404;-64
2021/04/26 10:47:26;;;;;;;0.10;0.10;;;;;;;9.44;42.20;97697.03;5025662;28;20037;-63
2021/04/26 10:50:14;;;;;;;0.10;0.10;;;;;;;9.36;42.30;97711.16;4973950;28;20526;-64
2021/04/26 10:52:43;;;;;;;0.10;0.10;;;;;;;9.26;42.26;97700.91;4971129;28;20066;-64
2021/04/26 10:55:23;;;;;;;0.20;0.20;;;;;;;9.15;42.55;97712.00;4972686;28;20034;-63
2021/04/26 10:57:56;;;;;;;0.20;0.20;;;;;;;9.05;42.55;97716.22;4986011;28;20464;-63
2021/04/26 11:00:22;;;;;;;0.20;0.20;;;;;;;9.11;42.45;97723.44;4967069;28;20042;-65
2021/04/26 11:02:52;;;;;;;0.20;0.20;;;;;;;9.20;42.28;97712.88;4974969;28;20031;-63
2021/04/26 11:05:23;;;;;;;0.20;0.20;;;;;;;9.25;42.08;97712.13;4970978;28;20037;-63
2021/04/26 11:07:56;;;;;;;0.10;0.10;;;;;;;9.25;42.10;97725.81;4971004;28;20241;-64
2021/04/26 11:10:28;;;;;;;0.20;0.20;;;;;;;9.18;42.18;97723.25;4970616;28;20034;-64
2021/04/26 11:12:55;;;;;;;0.15;0.15;;;;;;;9.07;42.21;97705.03;4987546;28;20035;-63
2021/04/26 11:15:23;;;;;;;0.20;0.20;;;;;;;9.05;42.28;97724.44;4982921;28;20031;-65
2021/04/26 11:17:50;;;;;;;0.20;0.20;;;;;;;9.14;42.24;97726.75;4973140;28;20120;-62
2021/04/26 11:20:19;;;;;;;0.10;0.10;;;;;;;9.32;41.84;97721.00;4987672;28;20563;-63
2021/04/26 11:22:46;;;;;;;0.20;0.20;;;;;;;9.42;41.67;97729.34;4972816;28;20038;-62
2021/04/26 11:25:34;;;;;;;0.20;0.20;;;;;;;9.45;41.76;97717.88;4970505;28;20019;-64
2021/04/26 11:28:01;;;;;;;0.20;0.20;;;;;;;9.41;41.67;97716.72;4972776;28;20042;-64
2021/04/26 11:30:33;;;;;;;0.20;0.20;;;;;;;9.39;41.70;97721.63;4972565;28;20023;-63
2021/04/26 11:33:02;;;;;;;0.13;0.13;;;;;;;9.40;41.55;97720.53;4972608;28;20535;-63
2021/04/26 11:35:29;;;;;;;0.20;0.20;;;;;;;9.39;41.77;97718.91;4972468;28;20388;-63
2021/04/26 11:37:57;;;;;;;0.68;0.52;;;;;;;9.41;41.81;97719.47;4972712;28;20030;-64
2021/04/26 11:40:26;;;;;;;0.10;0.10;;;;;;;9.45;41.64;97726.09;4972129;28;20035;-65
2021/04/26 11:43:00;;;;;;;0.10;0.10;;;;;;;9.50;41.63;97730.81;4966256;28;20035;-65
2021/04/26 11:45:25;;;;;;;0.20;0.20;;;;;;;9.55;41.59;97724.56;4969472;28;20093;-64
2021/04/26 11:47:52;;;;;;;0.10;0.10;;;;;;;9.62;41.41;97728.75;4971900;28;20038;-63